sensor_id;sensor_type;location;lat;lon;timestamp;pressure;altitude;pressure_sealevel;temperature;humidity
53011;BME280;42803;55.762;38.084;2022-12-18T00:00:26;99104.22;;;-5.68;100.00
53011;BME280;42803;55.762;38.084;2022-12-18T00:02:55;99090.91;;;-5.72;100.00
53011;BME280;42803;55.762;38.084;2022-12-18T00:05:24;99086.22;;;-5.56;100.00
53011;BME280;42803;55.762;38.084;2022-12-18T00:07:53;99085.28;;;-5.70;100.00
53011;BME280;42803;55.762;38.084;2022-12-18T00:10:22;99072.09;;;-5.80;100.00
53011;BME280;42803;55.762;38.084;2022-12-18T00:12:53;99082.25;;;-5.67;100.00
53011;BME280;42803;55.762;38.084;2022-12-18T00:15:22;99064.47;;;-5.67;100.00
53011;BME280;42803;55.762;38.084;2022-12-18T00:17:51;99066.88;;;-5.61;100.00
53011;BME280;42803;55.762;38.084;2022-12-18T00:20:20;99067.72;;;-5.23;100.00
53011;BME280;42803;55.762;38.084;2022-12-18T00:22:53;99053.63;;;-5.46;100.00
53011;BME280;42803;55.762;38.084;2022-12-18T00:25:22;99065.34;;;-5.54;100.00
53011;BME280;42803;55.762;38.084;2022-12-18T00:27:52;99045.75;;;-5.35;100.00
53011;BME280;42803;55.762;38.084;2022-12-18T00:30:21;99032.09;;;-5.55;100.00
53011;BME280;42803;55.762;38.084;2022-12-18T00:32:50;99018.97;;;-5.58;100.00
53011;BME280;42803;55.762;38.084;2022-12-18T00:35:19;99046.94;;;-5.58;100.00
53011;BME280;42803;55.762;38.084;2022-12-18T00:37:48;99030.63;;;-5.41;100.00
53011;BME280;42803;55.762;38.084;2022-12-18T00:40:17;99011.19;;;-5.40;100.00
53011;BME280;42803;55.762;38.084;2022-12-18T00:42:46;99019.22;;;-5.70;100.00
53011;BME280;42803;55.762;38.084;2022-12-18T00:45:26;99006.28;;;-5.58;100.00
53011;BME280;42803;55.762;38.084;2022-12-18T00:47:56;99017.06;;;-5.67;100.00
53011;BME280;42803;55.762;38.084;2022-12-18T00:50:29;99013.25;;;-5.83;100.00
53011;BME280;42803;55.762;38.084;2022-12-18T00:53:00;99003.06;;;-5.70;100.00
53011;BME280;42803;55.762;38.084;2022-12-18T00:55:29;99001.28;;;-5.51;100.00
53011;BME280;42803;55.762;38.084;2022-12-18T00:57:58;98998.78;;;-5.77;100.00
53011;BME280;42803;55.762;38.084;2022-12-18T01:00:29;98983.38;;;-5.58;100.00
53011;BME280;42803;55.762;38.084;2022-12-18T01:02:58;98994.63;;;-5.44;100.00
53011;BME280;42803;55.762;38.084;2022-12-18T01:05:27;98965.00;;;-5.63;100.00
53011;BME280;42803;55.762;38.084;2022-12-18T01:07:57;98956.78;;;-5.68;100.00
53011;BME280;42803;55.762;38.084;2022-12-18T01:10:26;98969.75;;;-5.92;100.00
53011;BME280;42803;55.762;38.084;2022-12-18T01:12:57;98950.13;;;-5.80;100.00
53011;BME280;42803;55.762;38.084;2022-12-18T01:15:26;98946.97;;;-5.84;100.00
53011;BME280;42803;55.762;38.084;2022-12-18T01:17:56;98939.59;;;-5.63;100.00
53011;BME280;42803;55.762;38.084;2022-12-18T01:20:27;98920.41;;;-5.74;100.00
53011;BME280;42803;55.762;38.084;2022-12-18T01:22:55;98928.09;;;-5.67;100.00
53011;BME280;42803;55.762;38.084;2022-12-18T01:25:24;98923.50;;;-5.56;100.00
53011;BME280;42803;55.762;38.084;2022-12-18T01:27:53;98894.88;;;-5.68;100.00
53011;BME280;42803;55.762;38.084;2022-12-18T01:30:24;98906.53;;;-5.83;100.00
53011;BME280;42803;55.762;38.084;2022-12-18T01:32:53;98914.44;;;-5.54;100.00
53011;BME280;42803;55.762;38.084;2022-12-18T01:35:24;98925.31;;;-5.55;100.00
53011;BME280;42803;55.762;38.084;2022-12-18T01:37:54;98916.66;;;-5.50;100.00
53011;BME280;42803;55.762;38.084;2022-12-18T01:40:23;98915.63;;;-5.45;100.00
53011;BME280;42803;55.762;38.084;2022-12-18T01:42:52;98910.25;;;-5.54;100.00
53011;BME280;42803;55.762;38.084;2022-12-18T01:45:25;98890.31;;;-5.71;100.00
53011;BME280;42803;55.762;38.084;2022-12-18T01:47:57;98917.03;;;-5.47;100.00
53011;BME280;42803;55.762;38.084;2022-12-18T01:50:31;98906.19;;;-5.79;100.00
53011;BME280;42803;55.762;38.084;2022-12-18T01:53:07;98906.91;;;-5.80;100.00
53011;BME280;42803;55.762;38.084;2022-12-18T01:55:40;98906.59;;;-5.76;100.00
53011;BME280;42803;55.762;38.084;2022-12-18T01:58:13;98902.44;;;-5.75;100.00
53011;BME280;42803;55.762;38.084;2022-12-18T02:00:42;98901.50;;;-5.76;100.00
53011;BME280;42803;55.762;38.084;2022-12-18T02:03:12;98901.00;;;-5.53;100.00
53011;BME280;42803;55.762;38.084;2022-12-18T02:05:45;98908.94;;;-5.57;100.00
53011;BME280;42803;55.762;38.084;2022-12-18T02:08:18;98897.59;;;-5.47;100.00
53011;BME280;42803;55.762;38.084;2022-12-18T02:10:56;98902.69;;;-5.67;100.00
53011;BME280;42803;55.762;38.084;2022-12-18T02:13:36;98901.28;;;-5.65;100.00
53011;BME280;42803;55.762;38.084;2022-12-18T02:16:34;98883.09;;;-5.68;100.00
53011;BME280;42803;55.762;38.084;2022-12-18T02:19:20;98887.19;;;-5.75;100.00
53011;BME280;42803;55.762;38.084;2022-12-18T02:22:07;98899.41;;;-5.66;100.00
53011;BME280;42803;55.762;38.084;2022-12-18T02:24:51;98887.69;;;-5.38;100.00
53011;BME280;42803;55.762;38.084;2022-12-18T02:27:29;98898.16;;;-5.49;100.00
53011;BME280;42803;55.762;38.084;2022-12-18T02:30:02;98894.00;;;-5.61;100.00
53011;BME280;42803;55.762;38.084;2022-12-18T02:32:35;98895.25;;;-5.65;100.00
53011;BME280;42803;55.762;38.084;2022-12-18T02:35:09;98896.28;;;-5.70;100.00
53011;BME280;42803;55.762;38.084;2022-12-18T02:37:42;98894.59;;;-5.77;100.00
53011;BME280;42803;55.762;38.084;2022-12-18T02:40:13;98879.44;;;-5.30;100.00
53011;BME280;42803;55.762;38.084;2022-12-18T02:42:44;98872.66;;;-5.56;100.00
53011;BME280;42803;55.762;38.084;2022-12-18T02:45:17;98883.78;;;-5.29;100.00
53011;BME280;42803;55.762;38.084;2022-12-18T02:47:49;98879.16;;;-5.39;100.00
53011;BME280;42803;55.762;38.084;2022-12-18T02:50:22;98881.38;;;-5.54;100.00
53011;BME280;42803;55.762;38.084;2022-12-18T02:53:04;98888.50;;;-5.52;100.00
53011;BME280;42803;55.762;38.084;2022-12-18T02:55:44;98882.78;;;-5.76;100.00
53011;BME280;42803;55.762;38.084;2022-12-18T02:58:26;98887.69;;;-5.38;100.00
53011;BME280;42803;55.762;38.084;2022-12-18T03:01:07;98915.94;;;-5.09;100.00
53011;BME280;42803;55.762;38.084;2022-12-18T03:03:40;98886.38;;;-5.02;100.00
53011;BME280;42803;55.762;38.084;2022-12-18T03:06:16;98898.00;;;-5.24;100.00
53011;BME280;42803;55.762;38.084;2022-12-18T03:08:54;98889.53;;;-5.37;100.00
53011;BME280;42803;55.762;38.084;2022-12-18T03:11:28;98887.50;;;-5.20;100.00
53011;BME280;42803;55.762;38.084;2022-12-18T03:14:37;98903.06;;;-5.04;100.00
53011;BME280;42803;55.762;38.084;2022-12-18T03:17:10;98902.97;;;-5.18;100.00
53011;BME280;42803;55.762;38.084;2022-12-18T03:19:43;98877.81;;;-5.29;100.00
53011;BME280;42803;55.762;38.084;2022-12-18T03:22:16;98880.78;;;-5.79;100.00
53011;BME280;42803;55.762;38.084;2022-12-18T03:24:49;98869.03;;;-5.31;100.00
53011;BME280;42803;55.762;38.084;2022-12-18T03:27:21;98872.03;;;-5.61;100.00
53011;BME280;42803;55.762;38.084;2022-12-18T03:30:01;98874.28;;;-5.37;100.00
53011;BME280;42803;55.762;38.084;2022-12-18T03:32:42;98886.19;;;-5.43;100.00
53011;BME280;42803;55.762;38.084;2022-12-18T03:35:18;98899.06;;;-5.29;100.00
53011;BME280;42803;55.762;38.084;2022-12-18T03:37:49;98901.72;;;-5.54;100.00
53011;BME280;42803;55.762;38.084;2022-12-18T03:40:20;98905.38;;;-5.85;100.00
53011;BME280;42803;55.762;38.084;2022-12-18T03:42:54;98903.84;;;-5.77;100.00
53011;BME280;42803;55.762;38.084;2022-12-18T03:45:34;98895.47;;;-5.44;100.00
53011;BME280;42803;55.762;38.084;2022-12-18T03:48:08;98898.53;;;-5.26;100.00
53011;BME280;42803;55.762;38.084;2022-12-18T03:50:46;98909.88;;;-5.37;100.00
53011;BME280;42803;55.762;38.084;2022-12-18T03:53:27;98885.72;;;-5.53;100.00
53011;BME280;42803;55.762;38.084;2022-12-18T03:56:00;98887.84;;;-5.64;100.00
53011;BME280;42803;55.762;38.084;2022-12-18T03:58:35;98882.59;;;-5.38;100.00
53011;BME280;42803;55.762;38.084;2022-12-18T04:01:31;98871.00;;;-5.36;100.00
53011;BME280;42803;55.762;38.084;2022-12-18T04:04:03;98858.34;;;-5.29;100.00
53011;BME280;42803;55.762;38.084;2022-12-18T04:06:37;98886.44;;;-5.34;100.00
53011;BME280;42803;55.762;38.084;2022-12-18T04:09:09;98907.34;;;-5.37;100.00
53011;BME280;42803;55.762;38.084;2022-12-18T04:11:43;98903.16;;;-5.36;100.00
53011;BME280;42803;55.762;38.084;2022-12-18T04:14:14;98902.28;;;-5.50;100.00
53011;BME280;42803;55.762;38.084;2022-12-18T04:16:48;98897.09;;;-5.44;100.00
53011;BME280;42803;55.762;38.084;2022-12-18T04:19:22;98893.69;;;-5.18;100.00
53011;BME280;42803;55.762;38.084;2022-12-18T04:21:53;98907.09;;;-5.26;100.00
53011;BME280;42803;55.762;38.084;2022-12-18T04:24:22;98897.84;;;-5.38;100.00
53011;BME280;42803;55.762;38.084;2022-12-18T04:27:02;98901.13;;;-5.39;100.00
53011;BME280;42803;55.762;38.084;2022-12-18T04:29:39;98886.69;;;-5.53;100.00
53011;BME280;42803;55.762;38.084;2022-12-18T04:32:09;98884.50;;;-5.50;100.00
53011;BME280;42803;55.762;38.084;2022-12-18T04:34:40;98909.47;;;-5.80;100.00
53011;BME280;42803;55.762;38.084;2022-12-18T04:37:09;98919.75;;;-5.66;100.00
53011;BME280;42803;55.762;38.084;2022-12-18T04:39:39;98922.63;;;-5.70;100.00
53011;BME280;42803;55.762;38.084;2022-12-18T04:42:15;98940.22;;;-6.04;100.00
53011;BME280;42803;55.762;38.084;2022-12-18T04:44:44;98932.75;;;-6.09;100.00
53011;BME280;42803;55.762;38.084;2022-12-18T04:47:14;98912.00;;;-6.13;100.00
53011;BME280;42803;55.762;38.084;2022-12-18T04:49:43;98925.13;;;-6.09;100.00
53011;BME280;42803;55.762;38.084;2022-12-18T04:52:12;98921.69;;;-5.90;100.00
53011;BME280;42803;55.762;38.084;2022-12-18T04:54:42;98931.72;;;-5.84;100.00
53011;BME280;42803;55.762;38.084;2022-12-18T04:57:10;98959.47;;;-5.86;100.00
53011;BME280;42803;55.762;38.084;2022-12-18T04:59:40;98976.59;;;-5.65;100.00
53011;BME280;42803;55.762;38.084;2022-12-18T05:02:09;98975.69;;;-5.66;100.00
53011;BME280;42803;55.762;38.084;2022-12-18T05:04:40;98980.19;;;-6.16;100.00
53011;BME280;42803;55.762;38.084;2022-12-18T05:07:09;98993.41;;;-6.31;100.00
53011;BME280;42803;55.762;38.084;2022-12-18T05:09:38;98983.34;;;-6.24;100.00
53011;BME280;42803;55.762;38.084;2022-12-18T05:12:08;99003.19;;;-5.89;100.00
53011;BME280;42803;55.762;38.084;2022-12-18T05:14:37;99003.72;;;-5.91;100.00
53011;BME280;42803;55.762;38.084;2022-12-18T05:17:06;99018.06;;;-6.04;100.00
53011;BME280;42803;55.762;38.084;2022-12-18T05:19:41;99019.53;;;-5.74;100.00
53011;BME280;42803;55.762;38.084;2022-12-18T05:22:10;99012.84;;;-5.86;100.00
53011;BME280;42803;55.762;38.084;2022-12-18T05:24:39;99010.63;;;-5.90;100.00
53011;BME280;42803;55.762;38.084;2022-12-18T05:27:08;99011.47;;;-5.97;100.00
53011;BME280;42803;55.762;38.084;2022-12-18T05:29:37;99028.41;;;-5.90;100.00
53011;BME280;42803;55.762;38.084;2022-12-18T05:32:06;99021.78;;;-5.82;100.00
53011;BME280;42803;55.762;38.084;2022-12-18T05:34:37;99016.69;;;-5.82;100.00
53011;BME280;42803;55.762;38.084;2022-12-18T05:37:22;99002.25;;;-6.22;100.00
53011;BME280;42803;55.762;38.084;2022-12-18T05:39:51;99010.88;;;-6.01;100.00
53011;BME280;42803;55.762;38.084;2022-12-18T05:42:20;99012.09;;;-6.18;100.00
53011;BME280;42803;55.762;38.084;2022-12-18T05:44:49;99014.31;;;-6.26;100.00
53011;BME280;42803;55.762;38.084;2022-12-18T05:47:19;99015.53;;;-6.30;100.00
53011;BME280;42803;55.762;38.084;2022-12-18T05:49:48;99036.78;;;-6.17;100.00
53011;BME280;42803;55.762;38.084;2022-12-18T05:52:19;99050.69;;;-6.07;100.00
53011;BME280;42803;55.762;38.084;2022-12-18T05:54:49;99037.19;;;-6.14;100.00
53011;BME280;42803;55.762;38.084;2022-12-18T05:57:18;99033.59;;;-5.96;100.00
53011;BME280;42803;55.762;38.084;2022-12-18T05:59:47;99037.28;;;-6.06;100.00
53011;BME280;42803;55.762;38.084;2022-12-18T06:02:16;99043.69;;;-6.16;100.00
53011;BME280;42803;55.762;38.084;2022-12-18T06:04:45;99052.94;;;-6.16;100.00
53011;BME280;42803;55.762;38.084;2022-12-18T06:07:14;99048.22;;;-6.26;100.00
53011;BME280;42803;55.762;38.084;2022-12-18T06:09:43;99064.72;;;-6.17;100.00
53011;BME280;42803;55.762;38.084;2022-12-18T06:12:14;99057.28;;;-6.41;100.00
53011;BME280;42803;55.762;38.084;2022-12-18T06:14:43;99072.75;;;-6.14;100.00
53011;BME280;42803;55.762;38.084;2022-12-18T06:17:12;99068.56;;;-6.00;100.00
53011;BME280;42803;55.762;38.084;2022-12-18T06:19:41;99064.06;;;-5.83;100.00
53011;BME280;42803;55.762;38.084;2022-12-18T06:22:10;99063.34;;;-5.82;100.00
53011;BME280;42803;55.762;38.084;2022-12-18T06:24:39;99084.53;;;-6.14;100.00
53011;BME280;42803;55.762;38.084;2022-12-18T06:27:08;99083.28;;;-6.10;100.00
53011;BME280;42803;55.762;38.084;2022-12-18T06:29:39;99080.56;;;-6.25;100.00
53011;BME280;42803;55.762;38.084;2022-12-18T06:32:08;99100.38;;;-6.09;100.00
53011;BME280;42803;55.762;38.084;2022-12-18T06:34:37;99100.56;;;-6.21;100.00
53011;BME280;42803;55.762;38.084;2022-12-18T06:37:07;99095.28;;;-6.22;100.00
53011;BME280;42803;55.762;38.084;2022-12-18T06:39:35;99078.50;;;-6.15;100.00
53011;BME280;42803;55.762;38.084;2022-12-18T06:42:05;99085.75;;;-6.18;100.00
53011;BME280;42803;55.762;38.084;2022-12-18T06:44:33;99091.94;;;-6.16;100.00
53011;BME280;42803;55.762;38.084;2022-12-18T06:47:04;99093.44;;;-6.10;100.00
53011;BME280;42803;55.762;38.084;2022-12-18T06:49:33;99103.03;;;-6.02;100.00
53011;BME280;42803;55.762;38.084;2022-12-18T06:52:02;99095.13;;;-5.98;100.00
53011;BME280;42803;55.762;38.084;2022-12-18T06:54:32;99122.63;;;-6.14;100.00
53011;BME280;42803;55.762;38.084;2022-12-18T06:57:00;99128.81;;;-5.99;100.00
53011;BME280;42803;55.762;38.084;2022-12-18T06:59:29;99135.53;;;-6.13;100.00
53011;BME280;42803;55.762;38.084;2022-12-18T07:01:59;99135.34;;;-6.01;100.00
53011;BME280;42803;55.762;38.084;2022-12-18T07:04:32;99151.44;;;-5.95;100.00
53011;BME280;42803;55.762;38.084;2022-12-18T07:07:01;99165.44;;;-5.79;100.00
53011;BME280;42803;55.762;38.084;2022-12-18T07:09:30;99165.44;;;-5.79;100.00
53011;BME280;42803;55.762;38.084;2022-12-18T07:11:59;99165.81;;;-5.89;100.00
53011;BME280;42803;55.762;38.084;2022-12-18T07:14:28;99171.22;;;-5.54;100.00
53011;BME280;42803;55.762;38.084;2022-12-18T07:16:57;99176.50;;;-5.91;100.00
53011;BME280;42803;55.762;38.084;2022-12-18T07:19:26;99185.13;;;-5.96;100.00
53011;BME280;42803;55.762;38.084;2022-12-18T07:21:58;99174.66;;;-5.54;100.00
53011;BME280;42803;55.762;38.084;2022-12-18T07:24:28;99176.50;;;-5.78;100.00
53011;BME280;42803;55.762;38.084;2022-12-18T07:26:57;99164.09;;;-5.70;100.00
53011;BME280;42803;55.762;38.084;2022-12-18T07:29:26;99176.50;;;-5.66;100.00
53011;BME280;42803;55.762;38.084;2022-12-18T07:31:55;99183.22;;;-5.66;100.00
53011;BME280;42803;55.762;38.084;2022-12-18T07:34:25;99194.19;;;-5.85;100.00
53011;BME280;42803;55.762;38.084;2022-12-18T07:36:54;99197.31;;;-5.81;100.00
53011;BME280;42803;55.762;38.084;2022-12-18T07:39:24;99204.25;;;-5.80;100.00
53011;BME280;42803;55.762;38.084;2022-12-18T07:41:53;99193.69;;;-5.57;100.00
53011;BME280;42803;55.762;38.084;2022-12-18T07:44:36;99207.34;;;-5.57;100.00
53011;BME280;42803;55.762;38.084;2022-12-18T07:47:05;99214.75;;;-5.58;100.00
53011;BME280;42803;55.762;38.084;2022-12-18T07:49:38;99227.28;;;-5.22;100.00
53011;BME280;42803;55.762;38.084;2022-12-18T07:52:07;99228.69;;;-5.49;100.00
53011;BME280;42803;55.762;38.084;2022-12-18T07:54:38;99201.88;;;-4.89;100.00
53011;BME280;42803;55.762;38.084;2022-12-18T07:57:07;99217.88;;;-5.16;100.00
53011;BME280;42803;55.762;38.084;2022-12-18T07:59:56;99235.00;;;-5.40;100.00
53011;BME280;42803;55.762;38.084;2022-12-18T08:02:25;99226.13;;;-5.62;100.00
53011;BME280;42803;55.762;38.084;2022-12-18T08:04:55;99233.78;;;-5.49;100.00
53011;BME280;42803;55.762;38.084;2022-12-18T08:07:24;99232.88;;;-5.37;100.00
53011;BME280;42803;55.762;38.084;2022-12-18T08:09:54;99219.94;;;-5.26;100.00
53011;BME280;42803;55.762;38.084;2022-12-18T08:12:23;99222.09;;;-5.42;100.00
53011;BME280;42803;55.762;38.084;2022-12-18T08:14:52;99226.22;;;-5.42;100.00
53011;BME280;42803;55.762;38.084;2022-12-18T08:17:21;99230.31;;;-5.24;100.00
53011;BME280;42803;55.762;38.084;2022-12-18T08:19:50;99229.59;;;-5.10;100.00
53011;BME280;42803;55.762;38.084;2022-12-18T08:22:19;99234.31;;;-5.26;100.00
53011;BME280;42803;55.762;38.084;2022-12-18T08:24:48;99247.72;;;-5.27;100.00
53011;BME280;42803;55.762;38.084;2022-12-18T08:27:18;99252.31;;;-5.37;100.00
53011;BME280;42803;55.762;38.084;2022-12-18T08:29:56;99270.41;;;-4.91;100.00
53011;BME280;42803;55.762;38.084;2022-12-18T08:32:27;99276.00;;;-5.31;100.00
53011;BME280;42803;55.762;38.084;2022-12-18T08:34:56;99290.66;;;-5.10;100.00
53011;BME280;42803;55.762;38.084;2022-12-18T08:37:26;99277.50;;;-5.39;100.00
53011;BME280;42803;55.762;38.084;2022-12-18T08:39:55;99274.84;;;-5.59;100.00
53011;BME280;42803;55.762;38.084;2022-12-18T08:42:26;99281.69;;;-5.52;100.00
53011;BME280;42803;55.762;38.084;2022-12-18T08:45:13;99287.19;;;-5.36;100.00
53011;BME280;42803;55.762;38.084;2022-12-18T08:47:43;99303.66;;;-5.27;100.00
53011;BME280;42803;55.762;38.084;2022-12-18T08:50:13;99298.94;;;-5.50;100.00
53011;BME280;42803;55.762;38.084;2022-12-18T08:52:44;99301.97;;;-5.34;100.00
53011;BME280;42803;55.762;38.084;2022-12-18T08:55:13;99317.47;;;-5.38;100.00
53011;BME280;42803;55.762;38.084;2022-12-18T08:57:47;99328.59;;;-5.37;100.00
53011;BME280;42803;55.762;38.084;2022-12-18T09:00:17;99316.91;;;-5.17;100.00
53011;BME280;42803;55.762;38.084;2022-12-18T09:02:46;99321.69;;;-5.13;100.00
53011;BME280;42803;55.762;38.084;2022-12-18T09:05:16;99322.88;;;-5.42;100.00
53011;BME280;42803;55.762;38.084;2022-12-18T09:07:45;99334.78;;;-5.48;100.00
53011;BME280;42803;55.762;38.084;2022-12-18T09:10:14;99330.63;;;-5.35;100.00
53011;BME280;42803;55.762;38.084;2022-12-18T09:12:45;99323.81;;;-5.42;100.00
53011;BME280;42803;55.762;38.084;2022-12-18T09:15:14;99335.69;;;-5.48;100.00
53011;BME280;42803;55.762;38.084;2022-12-18T09:17:43;99319.81;;;-5.52;100.00
53011;BME280;42803;55.762;38.084;2022-12-18T09:20:12;99336.66;;;-5.66;100.00
53011;BME280;42803;55.762;38.084;2022-12-18T09:22:41;99347.97;;;-5.64;100.00
53011;BME280;42803;55.762;38.084;2022-12-18T09:25:10;99348.31;;;-5.42;100.00
53011;BME280;42803;55.762;38.084;2022-12-18T09:27:39;99340.78;;;-5.35;100.00
53011;BME280;42803;55.762;38.084;2022-12-18T09:30:10;99345.56;;;-5.44;100.00
53011;BME280;42803;55.762;38.084;2022-12-18T09:32:39;99356.41;;;-5.57;100.00
53011;BME280;42803;55.762;38.084;2022-12-18T09:35:08;99358.88;;;-5.52;100.00
53011;BME280;42803;55.762;38.084;2022-12-18T09:37:38;99361.69;;;-5.25;100.00
53011;BME280;42803;55.762;38.084;2022-12-18T09:40:13;99356.78;;;-5.36;100.00
53011;BME280;42803;55.762;38.084;2022-12-18T09:42:46;99359.28;;;-5.49;100.00
53011;BME280;42803;55.762;38.084;2022-12-18T09:45:18;99372.31;;;-5.40;100.00
53011;BME280;42803;55.762;38.084;2022-12-18T09:47:49;99383.56;;;-5.20;100.00
53011;BME280;42803;55.762;38.084;2022-12-18T09:50:24;99385.50;;;-5.24;100.00
53011;BME280;42803;55.762;38.084;2022-12-18T09:52:59;99378.28;;;-5.08;100.00
53011;BME280;42803;55.762;38.084;2022-12-18T09:55:36;99375.31;;;-5.24;100.00
53011;BME280;42803;55.762;38.084;2022-12-18T09:58:11;99381.06;;;-5.38;100.00
53011;BME280;42803;55.762;38.084;2022-12-18T10:00:44;99377.38;;;-4.96;100.00
53011;BME280;42803;55.762;38.084;2022-12-18T10:03:14;99368.63;;;-5.11;100.00
53011;BME280;42803;55.762;38.084;2022-12-18T10:05:49;99390.84;;;-4.84;100.00
53011;BME280;42803;55.762;38.084;2022-12-18T10:08:27;99388.81;;;-5.00;100.00
53011;BME280;42803;55.762;38.084;2022-12-18T10:11:07;99396.63;;;-4.98;100.00
53011;BME280;42803;55.762;38.084;2022-12-18T10:13:47;99400.50;;;-4.82;100.00
53011;BME280;42803;55.762;38.084;2022-12-18T10:16:27;99392.16;;;-4.94;100.00
53011;BME280;42803;55.762;38.084;2022-12-18T10:19:20;99409.66;;;-5.02;100.00
53011;BME280;42803;55.762;38.084;2022-12-18T10:21:59;99387.06;;;-5.06;100.00
53011;BME280;42803;55.762;38.084;2022-12-18T10:24:35;99389.19;;;-5.09;100.00
53011;BME280;42803;55.762;38.084;2022-12-18T10:27:14;99396.63;;;-4.98;100.00
53011;BME280;42803;55.762;38.084;2022-12-18T10:29:44;99406.25;;;-5.21;100.00
53011;BME280;42803;55.762;38.084;2022-12-18T10:32:18;99406.75;;;-5.24;100.00
53011;BME280;42803;55.762;38.084;2022-12-18T10:34:48;99400.97;;;-5.23;100.00
53011;BME280;42803;55.762;38.084;2022-12-18T10:37:28;99406.34;;;-5.27;100.00
53011;BME280;42803;55.762;38.084;2022-12-18T10:40:10;99400.56;;;-5.13;100.00
53011;BME280;42803;55.762;38.084;2022-12-18T10:43:03;99408.63;;;-4.97;100.00
53011;BME280;42803;55.762;38.084;2022-12-18T10:45:32;99412.94;;;-5.03;100.00
53011;BME280;42803;55.762;38.084;2022-12-18T10:48:04;99400.31;;;-4.83;100.00
53011;BME280;42803;55.762;38.084;2022-12-18T10:50:49;99402.94;;;-5.15;100.00
53011;BME280;42803;55.762;38.084;2022-12-18T10:53:41;99409.25;;;-5.05;100.00
53011;BME280;42803;55.762;38.084;2022-12-18T10:56:11;99407.13;;;-5.02;100.00
53011;BME280;42803;55.762;38.084;2022-12-18T10:58:40;99417.66;;;-5.25;100.00
53011;BME280;42803;55.762;38.084;2022-12-18T11:01:11;99431.88;;;-5.32;100.00
53011;BME280;42803;55.762;38.084;2022-12-18T11:03:44;99424.44;;;-5.31;100.00
53011;BME280;42803;55.762;38.084;2022-12-18T11:06:15;99438.84;;;-5.19;100.00
53011;BME280;42803;55.762;38.084;2022-12-18T11:08:58;99437.69;;;-5.21;100.00
53011;BME280;42803;55.762;38.084;2022-12-18T11:11:28;99446.19;;;-5.02;100.00
53011;BME280;42803;55.762;38.084;2022-12-18T11:14:02;99473.75;;;-5.18;100.00
53011;BME280;42803;55.762;38.084;2022-12-18T11:16:36;99470.91;;;-5.13;100.00
53011;BME280;42803;55.762;38.084;2022-12-18T11:19:21;99488.16;;;-5.24;100.00
53011;BME280;42803;55.762;38.084;2022-12-18T11:21:52;99468.22;;;-5.52;100.00
53011;BME280;42803;55.762;38.084;2022-12-18T11:24:25;99482.75;;;-5.32;100.00
53011;BME280;42803;55.762;38.084;2022-12-18T11:26:57;99482.09;;;-5.19;100.00
53011;BME280;42803;55.762;38.084;2022-12-18T11:29:32;99488.75;;;-5.01;100.00
53011;BME280;42803;55.762;38.084;2022-12-18T11:32:31;99489.16;;;-5.29;100.00
53011;BME280;42803;55.762;38.084;2022-12-18T11:35:12;99491.47;;;-5.30;100.00
53011;BME280;42803;55.762;38.084;2022-12-18T11:37:47;99487.50;;;-5.41;100.00
53011;BME280;42803;55.762;38.084;2022-12-18T11:40:20;99493.41;;;-5.35;100.00
53011;BME280;42803;55.762;38.084;2022-12-18T11:42:54;99500.59;;;-5.38;100.00
53011;BME280;42803;55.762;38.084;2022-12-18T11:45:28;99509.25;;;-5.43;100.00
53011;BME280;42803;55.762;38.084;2022-12-18T11:48:02;99513.75;;;-5.35;100.00
53011;BME280;42803;55.762;38.084;2022-12-18T11:50:49;99506.75;;;-5.30;100.00
53011;BME280;42803;55.762;38.084;2022-12-18T11:53:19;99517.16;;;-5.47;100.00
53011;BME280;42803;55.762;38.084;2022-12-18T11:56:05;99529.59;;;-5.43;100.00
53011;BME280;42803;55.762;38.084;2022-12-18T11:58:46;99540.31;;;-5.70;100.00
53011;BME280;42803;55.762;38.084;2022-12-18T12:01:28;99536.94;;;-5.76;100.00
53011;BME280;42803;55.762;38.084;2022-12-18T12:04:33;99535.94;;;-5.71;100.00
53011;BME280;42803;55.762;38.084;2022-12-18T12:07:16;99540.94;;;-5.65;100.00
53011;BME280;42803;55.762;38.084;2022-12-18T12:09:55;99549.63;;;-5.57;100.00
53011;BME280;42803;55.762;38.084;2022-12-18T12:12:35;99566.47;;;-5.52;100.00
53011;BME280;42803;55.762;38.084;2022-12-18T12:15:27;99559.94;;;-5.50;100.00
53011;BME280;42803;55.762;38.084;2022-12-18T12:18:08;99571.22;;;-5.85;100.00
53011;BME280;42803;55.762;38.084;2022-12-18T12:20:50;99571.81;;;-5.75;100.00
53011;BME280;42803;55.762;38.084;2022-12-18T12:23:33;99571.47;;;-5.47;100.00
53011;BME280;42803;55.762;38.084;2022-12-18T12:26:08;99577.31;;;-5.53;100.00
53011;BME280;42803;55.762;38.084;2022-12-18T12:28:52;99585.69;;;-5.36;100.00
53011;BME280;42803;55.762;38.084;2022-12-18T12:31:39;99586.59;;;-5.35;100.00
53011;BME280;42803;55.762;38.084;2022-12-18T12:34:18;99585.19;;;-5.52;100.00
53011;BME280;42803;55.762;38.084;2022-12-18T12:36:59;99589.84;;;-5.55;100.00
53011;BME280;42803;55.762;38.084;2022-12-18T12:39:36;99590.88;;;-5.66;100.00
53011;BME280;42803;55.762;38.084;2022-12-18T12:42:12;99605.69;;;-5.26;100.00
53011;BME280;42803;55.762;38.084;2022-12-18T12:45:05;99603.00;;;-5.33;100.00
53011;BME280;42803;55.762;38.084;2022-12-18T12:47:38;99599.69;;;-5.69;100.00
53011;BME280;42803;55.762;38.084;2022-12-18T12:50:14;99614.28;;;-5.92;100.00
53011;BME280;42803;55.762;38.084;2022-12-18T12:52:46;99590.50;;;-5.93;100.00
53011;BME280;42803;55.762;38.084;2022-12-18T12:55:20;99619.75;;;-5.83;100.00
53011;BME280;42803;55.762;38.084;2022-12-18T12:57:59;99621.38;;;-5.66;100.00
53011;BME280;42803;55.762;38.084;2022-12-18T13:00:36;99631.25;;;-5.80;100.00
53011;BME280;42803;55.762;38.084;2022-12-18T13:03:12;99624.03;;;-5.77;100.00
53011;BME280;42803;55.762;38.084;2022-12-18T13:05:48;99642.50;;;-5.72;100.00
53011;BME280;42803;55.762;38.084;2022-12-18T13:08:26;99653.25;;;-5.62;100.00
53011;BME280;42803;55.762;38.084;2022-12-18T13:11:01;99652.09;;;-5.88;100.00